< < Back
Terminal Aerodrome Forecast


Current Version              Previous Versions:   1  2  3  4  5  6  7  8  9  

Terminal Aerodrome Forecast

670
FTUS42 KJAX 180100 AAA
TAFSSI
TAF AMD
KSSI 180100Z 1801/1824 05013G20KT P6SM SCT020 BKN050
      TEMPO 1801/1803 OVC020
     FM180300 06013G20KT P6SM OVC015
     FM181400 07017G26KT 5SM -RA BR OVC009
     FM182000 07016G26KT 2SM RA BR OVC007=

Latest METAR

806
SAUS70 KWBC 181300 RRK
MTRSSI
METAR KSSI 181253Z AUTO 05014G23KT 7SM SCT008 OVC017 18/17 A3017 RMK AO2
SLP216 T01830167 PWINO $


USA.gov is the U.S. government's official web portal to all federal, state and local government web resources and services.